createdAt,value
2022-08-22T00:02:09.960Z,77.70
2022-08-22T00:03:08.633Z,72.50
2022-08-22T00:04:50.735Z,77.30
2022-08-22T00:07:42.327Z,77.20
2022-08-22T00:10:25.586Z,77.10
2022-08-22T00:13:07.316Z,77.00
2022-08-22T00:15:47.447Z,76.90
2022-08-22T00:18:36.811Z,76.70
2022-08-22T00:21:16.861Z,76.90
2022-08-22T00:24:20.910Z,77.00
2022-08-22T00:27:02.078Z,76.70
2022-08-22T00:29:51.274Z,76.90
2022-08-22T00:32:25.390Z,77.00
2022-08-22T00:35:30.008Z,77.40
2022-08-22T00:38:03.158Z,77.40
2022-08-22T00:41:17.240Z,77.40
2022-08-22T00:44:04.825Z,77.30
2022-08-22T00:47:02.614Z,77.60
2022-08-22T00:49:52.950Z,77.20
2022-08-22T00:52:30.521Z,77.20
2022-08-22T00:55:09.005Z,77.30
2022-08-22T00:57:41.856Z,77.40
2022-08-22T01:00:20.798Z,77.20
2022-08-22T01:03:16.398Z,77.30
2022-08-22T01:05:49.124Z,77.20
2022-08-22T01:08:22.231Z,77.20
2022-08-22T01:11:10.686Z,76.80
2022-08-22T01:13:58.747Z,76.90
2022-08-22T01:16:34.528Z,76.40
2022-08-22T01:19:20.961Z,76.60
2022-08-22T01:22:12.317Z,76.40
2022-08-22T01:25:09.463Z,76.70
2022-08-22T01:28:10.141Z,76.90
2022-08-22T01:30:46.880Z,77.20
2022-08-22T01:33:32.467Z,77.50
2022-08-22T01:36:27.105Z,77.80
2022-08-22T01:39:03.387Z,77.80
2022-08-22T01:41:39.144Z,77.70
2022-08-22T01:44:18.065Z,77.50
2022-08-22T01:47:00.863Z,77.70
2022-08-22T01:49:27.608Z,77.50
2022-08-22T01:52:09.923Z,77.50
2022-08-22T01:55:01.105Z,77.80
2022-08-22T01:57:28.421Z,77.40
2022-08-22T02:00:04.039Z,77.90
2022-08-22T02:03:08.042Z,77.70
2022-08-22T02:05:54.178Z,78.10
2022-08-22T02:08:53.387Z,78.40
2022-08-22T02:11:45.177Z,78.50
2022-08-22T02:14:17.816Z,78.30
2022-08-22T02:16:58.137Z,78.50
2022-08-22T02:19:35.064Z,78.50
2022-08-22T02:22:07.241Z,78.50
2022-08-22T02:24:34.121Z,77.90
2022-08-22T02:27:10.481Z,77.90
2022-08-22T02:30:06.671Z,77.70
2022-08-22T02:32:42.362Z,77.70
2022-08-22T02:35:28.022Z,78.30
2022-08-22T02:38:16.818Z,77.80
2022-08-22T02:41:08.808Z,78.10
2022-08-22T02:43:52.486Z,78.40
2022-08-22T02:46:25.941Z,78.40
2022-08-22T02:49:04.535Z,78.80
2022-08-22T02:51:43.199Z,78.80
2022-08-22T02:54:48.437Z,78.60
2022-08-22T02:57:39.544Z,78.70
2022-08-22T03:00:32.743Z,78.40
2022-08-22T03:03:02.941Z,79.30
2022-08-22T03:05:38.977Z,79.60
2022-08-22T03:08:47.578Z,78.90
2022-08-22T03:11:32.147Z,79.70
2022-08-22T03:14:07.435Z,80.30
2022-08-22T03:16:45.896Z,80.90
2022-08-22T03:19:20.258Z,80.90
2022-08-22T03:21:59.079Z,80.90
2022-08-22T03:24:50.127Z,81.10
2022-08-22T03:27:33.070Z,81.10
2022-08-22T03:30:10.232Z,80.30
2022-08-22T03:33:20.713Z,80.90
2022-08-22T03:35:47.522Z,79.90
2022-08-22T03:38:26.280Z,79.80
2022-08-22T03:41:24.336Z,79.50
2022-08-22T03:44:15.069Z,79.30
2022-08-22T03:46:41.923Z,79.20
2022-08-22T03:49:33.513Z,79.40
2022-08-22T03:52:25.166Z,79.40
2022-08-22T03:55:07.797Z,79.10
2022-08-22T03:58:06.867Z,78.80
2022-08-22T04:01:07.744Z,79.20
2022-08-22T04:03:52.363Z,78.80
2022-08-22T04:06:26.317Z,78.80
2022-08-22T04:09:20.916Z,78.40
2022-08-22T04:11:56.790Z,78.20
2022-08-22T04:14:58.074Z,79.30
2022-08-22T04:17:34.069Z,79.50
2022-08-22T04:20:25.496Z,79.40
2022-08-22T04:23:23.098Z,79.10
2022-08-22T04:25:58.706Z,79.40
2022-08-22T04:28:39.846Z,79.30
2022-08-22T04:31:12.136Z,79.00
2022-08-22T04:33:46.317Z,79.00
2022-08-22T04:36:15.981Z,79.60
2022-08-22T04:38:48.811Z,79.90
2022-08-22T04:41:29.676Z,79.10
2022-08-22T04:44:03.753Z,79.00
2022-08-22T04:46:57.541Z,79.40
2022-08-22T04:49:57.124Z,79.50
2022-08-22T04:52:29.540Z,79.30
2022-08-22T04:55:24.397Z,78.80
2022-08-22T04:58:28.685Z,79.20
2022-08-22T05:01:04.519Z,79.10
2022-08-22T05:03:35.905Z,79.30
2022-08-22T05:06:05.421Z,79.10
2022-08-22T05:08:39.593Z,79.60
2022-08-22T05:11:09.725Z,79.60
2022-08-22T05:13:57.459Z,79.30
2022-08-22T05:16:31.563Z,79.30
2022-08-22T05:19:03.345Z,78.80
2022-08-22T05:21:35.280Z,79.20
2022-08-22T05:24:08.022Z,79.40
2022-08-22T05:26:40.505Z,80.20
2022-08-22T05:29:11.166Z,79.70
2022-08-22T05:31:56.365Z,79.70
2022-08-22T05:34:27.095Z,80.00
2022-08-22T05:37:04.577Z,79.20
2022-08-22T05:39:37.917Z,79.50
2022-08-22T05:42:11.653Z,79.70
2022-08-22T05:44:39.367Z,79.50
2022-08-22T05:47:35.411Z,79.90
2022-08-22T05:50:05.158Z,79.90
2022-08-22T05:52:41.038Z,79.70
2022-08-22T05:55:22.324Z,80.10
2022-08-22T05:58:05.857Z,79.80
2022-08-22T06:00:38.807Z,80.30
2022-08-22T06:03:24.211Z,80.10
2022-08-22T06:05:56.129Z,81.00
2022-08-22T06:08:25.799Z,81.60
2022-08-22T06:10:59.902Z,81.10
2022-08-22T06:13:41.688Z,81.40
2022-08-22T06:16:21.455Z,81.20
2022-08-22T06:18:50.880Z,82.00
2022-08-22T06:21:39.236Z,81.70
2022-08-22T06:24:13.047Z,81.20
2022-08-22T06:26:48.323Z,81.00
2022-08-22T06:29:24.909Z,80.80
2022-08-22T06:31:52.028Z,80.60
2022-08-22T06:34:31.213Z,79.90
2022-08-22T06:37:02.190Z,80.00
2022-08-22T06:39:41.673Z,79.60
2022-08-22T06:42:17.156Z,78.90
2022-08-22T06:44:46.561Z,78.40
2022-08-22T06:47:23.497Z,78.10
2022-08-22T06:49:57.230Z,77.90
2022-08-22T06:52:27.236Z,77.90
2022-08-22T06:55:07.434Z,77.80
2022-08-22T06:57:53.687Z,77.60
2022-08-22T07:00:21.023Z,77.80
2022-08-22T07:03:01.870Z,77.60
2022-08-22T07:05:34.832Z,77.50
2022-08-22T07:08:07.667Z,77.30
2022-08-22T07:10:35.047Z,77.40
2022-08-22T07:13:04.555Z,77.70
2022-08-22T07:15:37.298Z,77.80
2022-08-22T07:18:19.682Z,77.50
2022-08-22T07:20:54.543Z,76.90
2022-08-22T07:23:40.606Z,76.80
2022-08-22T07:26:25.985Z,76.70
2022-08-22T07:28:59.351Z,76.70
2022-08-22T07:31:46.699Z,76.60
2022-08-22T07:34:18.592Z,76.60
2022-08-22T07:36:53.859Z,76.80
2022-08-22T07:39:33.649Z,76.70
2022-08-22T07:42:11.453Z,76.40
2022-08-22T07:45:05.370Z,76.80
2022-08-22T07:47:55.653Z,76.30
2022-08-22T07:50:28.661Z,76.70
2022-08-22T07:53:05.094Z,76.80
2022-08-22T07:55:32.173Z,76.60
2022-08-22T07:58:06.124Z,76.70
2022-08-22T08:00:34.401Z,76.80
2022-08-22T08:03:07.384Z,77.00
2022-08-22T08:05:37.095Z,76.90
2022-08-22T08:08:15.577Z,76.60
2022-08-22T08:10:43.108Z,76.50
2022-08-22T08:13:14.527Z,76.10
2022-08-22T08:15:45.812Z,76.10
2022-08-22T08:18:19.467Z,75.90
2022-08-22T08:20:54.864Z,75.30
2022-08-22T08:23:23.581Z,75.10
2022-08-22T08:26:00.780Z,75.10
2022-08-22T08:28:34.754Z,75.10
2022-08-22T08:31:14.800Z,74.90
2022-08-22T08:33:45.310Z,74.40
2022-08-22T08:36:33.866Z,74.60
2022-08-22T08:39:12.549Z,74.30
2022-08-22T08:41:59.091Z,74.30
2022-08-22T08:44:47.181Z,74.60
2022-08-22T08:47:23.057Z,74.70
2022-08-22T08:50:14.419Z,74.50
2022-08-22T08:52:59.994Z,74.40
2022-08-22T08:55:26.891Z,74.50
2022-08-22T08:58:07.024Z,74.70
2022-08-22T09:00:48.984Z,75.00
2022-08-22T09:03:43.946Z,75.10
2022-08-22T09:06:42.616Z,74.50
2022-08-22T09:09:44.001Z,74.40
2022-08-22T09:12:33.782Z,74.50
2022-08-22T09:15:45.001Z,74.60
2022-08-22T09:18:59.445Z,74.40
2022-08-22T09:21:58.519Z,74.20
2022-08-22T09:24:37.585Z,74.00
2022-08-22T09:27:32.627Z,73.90
2022-08-22T09:30:11.636Z,73.70
2022-08-22T09:32:52.158Z,73.70
2022-08-22T09:35:25.705Z,73.70
2022-08-22T09:38:18.676Z,74.00
2022-08-22T09:40:50.174Z,73.60
2022-08-22T09:43:33.651Z,73.90
2022-08-22T09:46:12.704Z,73.90
2022-08-22T09:48:48.695Z,73.70
2022-08-22T09:51:52.945Z,73.50
2022-08-22T09:54:47.474Z,73.50
2022-08-22T09:57:18.463Z,73.30
2022-08-22T10:00:13.678Z,73.30
2022-08-22T10:02:54.182Z,73.20
2022-08-22T10:05:40.871Z,73.60
2022-08-22T10:08:14.053Z,73.20
2022-08-22T10:10:51.476Z,72.60
2022-08-22T10:13:24.282Z,72.90
2022-08-22T10:16:01.873Z,73.10
2022-08-22T10:18:53.910Z,73.30
2022-08-22T10:22:00.568Z,73.20
2022-08-22T10:24:43.756Z,73.00
2022-08-22T10:27:28.971Z,72.40
2022-08-22T10:30:08.169Z,72.20
2022-08-22T10:33:13.878Z,72.30
2022-08-22T10:35:51.449Z,72.20
2022-08-22T10:38:29.417Z,72.30
2022-08-22T10:41:00.902Z,72.50
2022-08-22T10:43:56.529Z,72.90
2022-08-22T10:47:05.856Z,72.90
2022-08-22T10:49:51.282Z,72.70
2022-08-22T10:52:21.158Z,73.40
2022-08-22T10:54:54.912Z,73.60
2022-08-22T10:57:22.660Z,73.80
2022-08-22T11:00:00.891Z,73.70
2022-08-22T11:02:36.938Z,73.80
2022-08-22T11:05:34.317Z,74.10
2022-08-22T11:08:24.037Z,73.90
2022-08-22T11:11:32.462Z,74.00
2022-08-22T11:14:37.719Z,74.00
2022-08-22T11:17:34.598Z,73.90
2022-08-22T11:20:29.519Z,73.80
2022-08-22T11:22:59.703Z,73.00
2022-08-22T11:25:43.606Z,72.50
2022-08-22T11:28:32.912Z,72.70
2022-08-22T11:31:19.765Z,71.90
2022-08-22T11:34:20.559Z,71.60
2022-08-22T11:37:00.975Z,70.40
2022-08-22T11:39:45.289Z,70.20
2022-08-22T11:42:47.462Z,68.70
2022-08-22T11:45:25.690Z,68.10
2022-08-22T11:48:06.912Z,68.30
2022-08-22T11:51:13.293Z,68.10
2022-08-22T11:53:45.344Z,67.80
2022-08-22T11:56:27.356Z,68.50
2022-08-22T11:59:07.268Z,68.70
2022-08-22T12:01:52.798Z,68.10
2022-08-22T12:04:45.986Z,67.30
2022-08-22T12:07:36.314Z,67.70
2022-08-22T12:10:16.589Z,67.60
2022-08-22T12:12:55.441Z,67.40
2022-08-22T12:15:27.076Z,67.20
2022-08-22T12:18:27.146Z,66.90
2022-08-22T12:21:17.908Z,67.10
2022-08-22T12:24:11.337Z,66.80
2022-08-22T12:27:11.652Z,67.10
2022-08-22T12:29:45.378Z,67.20
2022-08-22T12:33:00.749Z,67.50
2022-08-22T12:35:49.515Z,66.90
2022-08-22T12:38:36.064Z,66.70
2022-08-22T12:41:34.997Z,66.90
2022-08-22T12:44:16.402Z,66.20
2022-08-22T12:47:05.897Z,67.10
2022-08-22T12:50:02.059Z,67.50
2022-08-22T12:52:57.815Z,67.60
2022-08-22T12:55:57.013Z,67.30
2022-08-22T12:58:53.709Z,67.30
2022-08-22T13:01:24.353Z,67.00
2022-08-22T13:04:04.907Z,66.70
2022-08-22T13:06:37.926Z,66.80
2022-08-22T13:09:19.595Z,66.60
2022-08-22T13:11:54.483Z,66.90
2022-08-22T13:14:27.766Z,66.50
2022-08-22T13:16:58.961Z,66.60
2022-08-22T13:19:32.274Z,66.60
2022-08-22T13:22:03.867Z,66.90
2022-08-22T13:24:39.456Z,67.60
2022-08-22T13:28:03.417Z,67.70
2022-08-22T13:30:37.670Z,67.80
2022-08-22T13:33:13.763Z,67.70
2022-08-22T13:36:20.247Z,67.70
2022-08-22T13:38:58.346Z,67.80
2022-08-22T13:41:32.605Z,68.20
2022-08-22T13:44:05.208Z,68.00
2022-08-22T13:46:35.471Z,68.10
2022-08-22T13:49:07.130Z,67.90
2022-08-22T13:51:48.530Z,67.80
2022-08-22T13:54:15.451Z,67.80
2022-08-22T13:57:03.915Z,68.20
2022-08-22T13:59:52.526Z,68.50
2022-08-22T14:02:37.474Z,68.20
2022-08-22T14:05:11.311Z,68.30
2022-08-22T14:07:56.838Z,67.70
2022-08-22T14:10:30.578Z,67.90
2022-08-22T14:12:57.736Z,67.40
2022-08-22T14:15:44.483Z,67.30
2022-08-22T14:18:31.603Z,68.00
2022-08-22T14:21:40.920Z,67.70
2022-08-22T14:24:25.466Z,66.60
2022-08-22T14:26:57.924Z,66.60
2022-08-22T14:29:26.956Z,66.60
2022-08-22T14:32:09.432Z,66.50
2022-08-22T14:34:39.077Z,67.10
2022-08-22T14:37:13.065Z,66.70
2022-08-22T14:39:56.804Z,66.50
2022-08-22T14:42:29.547Z,66.60
2022-08-22T14:45:11.503Z,66.50
2022-08-22T14:47:55.266Z,65.80
2022-08-22T14:50:46.167Z,66.20
2022-08-22T14:53:37.102Z,66.40
2022-08-22T14:56:18.454Z,66.30
2022-08-22T14:59:03.009Z,66.10
2022-08-22T15:01:32.966Z,65.60
2022-08-22T15:04:09.795Z,65.50
2022-08-22T15:06:57.933Z,65.20
2022-08-22T15:09:44.204Z,66.00
2022-08-22T15:12:34.548Z,65.80
2022-08-22T15:15:12.772Z,65.70
2022-08-22T15:17:51.006Z,65.80
2022-08-22T15:20:31.316Z,65.50
2022-08-22T15:23:15.567Z,65.30
2022-08-22T15:25:47.038Z,65.50
2022-08-22T15:28:20.136Z,65.20
2022-08-22T15:31:03.739Z,65.10
2022-08-22T15:33:43.306Z,65.20
2022-08-22T15:36:24.577Z,64.50
2022-08-22T15:39:28.283Z,65.60
2022-08-22T15:41:56.936Z,66.00
2022-08-22T15:44:32.938Z,66.30
2022-08-22T15:47:34.260Z,66.60
2022-08-22T15:50:06.403Z,66.70
2022-08-22T15:53:13.493Z,66.50
2022-08-22T15:56:06.780Z,66.00
2022-08-22T15:58:39.841Z,65.60
2022-08-22T16:01:22.439Z,66.10
2022-08-22T16:04:06.440Z,67.10
2022-08-22T16:06:55.261Z,67.10
2022-08-22T16:09:37.555Z,67.60
2022-08-22T16:12:26.376Z,67.60
2022-08-22T16:14:53.687Z,67.60
2022-08-22T16:17:29.123Z,67.70
2022-08-22T16:20:08.051Z,67.90
2022-08-22T16:22:56.450Z,67.50
2022-08-22T16:25:45.484Z,67.40
2022-08-22T16:28:57.372Z,67.00
2022-08-22T16:31:21.323Z,67.30
2022-08-22T16:33:48.461Z,67.30
2022-08-22T16:36:41.036Z,67.40
2022-08-22T16:39:44.869Z,66.80
2022-08-22T16:42:21.953Z,67.00
2022-08-22T16:45:05.299Z,67.40
2022-08-22T16:47:41.594Z,67.20
2022-08-22T16:50:23.412Z,67.50
2022-08-22T16:52:58.785Z,67.50
2022-08-22T16:55:31.470Z,68.00
2022-08-22T16:58:44.691Z,68.20
2022-08-22T17:01:58.646Z,68.10
2022-08-22T17:04:33.598Z,68.30
2022-08-22T17:07:03.634Z,68.40
2022-08-22T17:09:54.522Z,69.00
2022-08-22T17:12:27.002Z,69.30
2022-08-22T17:15:36.688Z,69.10
2022-08-22T17:18:40.726Z,69.20
2022-08-22T17:21:18.819Z,69.40
2022-08-22T17:24:31.824Z,69.40
2022-08-22T17:27:35.113Z,69.30
2022-08-22T17:30:01.984Z,69.90
2022-08-22T17:32:42.171Z,70.30
2022-08-22T17:35:25.050Z,70.90
2022-08-22T17:37:54.899Z,70.90
2022-08-22T17:40:56.983Z,71.20
2022-08-22T17:43:48.701Z,71.20
2022-08-22T17:46:25.234Z,70.60
2022-08-22T17:49:15.617Z,71.40
2022-08-22T17:51:48.612Z,71.00
2022-08-22T17:54:32.164Z,71.60
2022-08-22T17:57:05.724Z,71.80
2022-08-22T17:59:47.192Z,71.70
2022-08-22T18:02:33.682Z,71.80
2022-08-22T18:05:03.623Z,72.90
2022-08-22T18:07:48.509Z,73.20
2022-08-22T18:10:15.402Z,73.70
2022-08-22T18:12:56.052Z,73.60
2022-08-22T18:15:30.167Z,73.60
2022-08-22T18:18:05.491Z,73.10
2022-08-22T18:20:46.498Z,72.80
2022-08-22T18:23:49.659Z,73.40
2022-08-22T18:26:58.526Z,74.10
2022-08-22T18:29:48.468Z,75.10
2022-08-22T18:32:59.544Z,76.30
2022-08-22T18:35:33.973Z,77.40
2022-08-22T18:38:20.245Z,77.80
2022-08-22T18:40:54.655Z,78.30
2022-08-22T18:43:39.542Z,78.70
2022-08-22T18:46:37.473Z,79.00
2022-08-22T18:49:18.051Z,79.30
2022-08-22T18:52:05.431Z,79.50
2022-08-22T18:54:45.094Z,79.80
2022-08-22T18:57:38.725Z,79.70
2022-08-22T19:00:36.548Z,79.80
2022-08-22T19:03:25.294Z,79.90
2022-08-22T19:06:05.923Z,79.80
2022-08-22T19:08:53.751Z,79.90
2022-08-22T19:11:43.983Z,80.00
2022-08-22T19:14:26.593Z,80.30
2022-08-22T19:17:05.456Z,80.50
2022-08-22T19:20:22.094Z,80.50
2022-08-22T19:22:51.241Z,80.60
2022-08-22T19:25:26.256Z,80.70
2022-08-22T19:28:11.486Z,80.90
2022-08-22T19:30:48.401Z,81.10
2022-08-22T19:33:19.621Z,81.20
2022-08-22T19:35:56.451Z,81.20
2022-08-22T19:39:23.128Z,81.40
2022-08-22T19:41:54.299Z,81.60
2022-08-22T19:44:21.124Z,81.90
2022-08-22T19:47:02.565Z,81.90
2022-08-22T19:49:35.813Z,82.10
2022-08-22T19:52:12.210Z,82.20
2022-08-22T19:54:48.080Z,82.30
2022-08-22T19:57:41.325Z,82.50
2022-08-22T20:00:22.840Z,82.50
2022-08-22T20:03:11.921Z,83.00
2022-08-22T20:05:47.440Z,83.10
2022-08-22T20:08:57.047Z,83.10
2022-08-22T20:11:38.825Z,83.10
2022-08-22T20:14:26.564Z,83.00
2022-08-22T20:17:11.912Z,83.20
2022-08-22T20:22:39.385Z,83.70
2022-08-22T20:25:15.731Z,83.50
2022-08-22T20:28:05.392Z,83.60
2022-08-22T20:30:45.454Z,83.70
2022-08-22T20:33:23.489Z,84.00
2022-08-22T20:35:56.183Z,84.20
2022-08-22T20:38:35.930Z,84.00
2022-08-22T20:41:13.502Z,84.00
2022-08-22T20:43:49.938Z,84.00
2022-08-22T20:46:53.217Z,84.00
2022-08-22T20:49:28.948Z,84.20
2022-08-22T20:52:03.033Z,84.20
2022-08-22T20:54:37.995Z,84.20
2022-08-22T20:57:32.034Z,84.20
2022-08-22T21:00:12.511Z,84.40
2022-08-22T21:02:41.632Z,84.40
2022-08-22T21:05:21.226Z,84.50
2022-08-22T21:08:12.664Z,84.50
2022-08-22T21:10:59.312Z,84.70
2022-08-22T21:13:36.324Z,84.80
2022-08-22T21:16:31.447Z,84.50
2022-08-22T21:19:01.628Z,84.60
2022-08-22T21:21:33.544Z,84.90
2022-08-22T21:24:07.051Z,84.80
2022-08-22T21:26:46.582Z,85.10
2022-08-22T21:29:13.430Z,85.10
2022-08-22T21:31:47.341Z,85.10
2022-08-22T21:34:28.821Z,85.00
2022-08-22T21:37:00.779Z,85.20
2022-08-22T21:39:34.610Z,85.10
2022-08-22T21:42:01.500Z,85.30
2022-08-22T21:44:31.393Z,85.30
2022-08-22T21:47:17.128Z,85.30
2022-08-22T21:50:13.258Z,85.10
2022-08-22T21:52:56.542Z,85.20
2022-08-22T21:55:28.125Z,85.10
2022-08-22T21:58:09.746Z,85.20
2022-08-22T22:00:50.584Z,85.40
2022-08-22T22:03:23.333Z,85.40
2022-08-22T22:05:52.908Z,85.40
2022-08-22T22:08:19.859Z,85.40
2022-08-22T22:10:49.133Z,85.60
2022-08-22T22:13:17.268Z,85.40
2022-08-22T22:15:46.693Z,85.30
2022-08-22T22:18:16.137Z,85.20
2022-08-22T22:20:44.442Z,85.50
2022-08-22T22:23:11.629Z,85.40
2022-08-22T22:25:42.125Z,85.30
2022-08-22T22:28:16.994Z,85.30
2022-08-22T22:30:45.549Z,85.30
2022-08-22T22:33:12.545Z,85.40
2022-08-22T22:35:40.772Z,85.40
2022-08-22T22:38:08.571Z,85.50
2022-08-22T22:40:35.939Z,85.70
2022-08-22T22:43:03.294Z,85.60
2022-08-22T22:45:30.242Z,85.90
2022-08-22T22:47:57.208Z,85.70
2022-08-22T22:50:24.617Z,85.90
2022-08-22T22:52:51.560Z,85.50
2022-08-22T22:55:24.905Z,85.50
2022-08-22T22:57:59.088Z,85.30
2022-08-22T23:00:31.747Z,85.20
2022-08-22T23:03:00.963Z,85.10
2022-08-22T23:05:31.532Z,85.30
2022-08-22T23:07:59.281Z,85.20
2022-08-22T23:10:27.696Z,85.10
2022-08-22T23:12:54.622Z,85.00
2022-08-22T23:15:21.646Z,84.90
2022-08-22T23:17:48.805Z,85.00
2022-08-22T23:20:15.756Z,85.10
2022-08-22T23:22:45.403Z,85.30
2022-08-22T23:25:12.657Z,85.50
2022-08-22T23:27:39.806Z,85.70
2022-08-22T23:30:11.107Z,85.40
2022-08-22T23:32:38.088Z,85.50
2022-08-22T23:35:05.970Z,85.50
2022-08-22T23:37:32.968Z,85.60
2022-08-22T23:40:00.014Z,85.50
2022-08-22T23:42:26.985Z,85.60
2022-08-22T23:44:53.915Z,85.40
2022-08-22T23:47:20.873Z,85.20
2022-08-22T23:49:47.782Z,85.30
2022-08-22T23:52:14.653Z,85.40
2022-08-22T23:54:41.711Z,85.20
2022-08-22T23:57:12.132Z,85.10
2022-08-22T23:59:46.455Z,85.50
